Michalis K — SY7349 — position and weather

sailwx.info

Track history (hours):
 
Tides and Currents Weather Stations Pressure Air Temp Water Temp Dewpoint Dewpoint Depression Visibility Wind Speed Wind Dir Waves Ship Positions

Michalis K

Last reported at 2017-Sep-21 16:01 UTC. Time now 2017-Sep-21 16:16 UTC.
Position N 40°51' E 024°42'.

Length 63 m; draft 3.2 m.

Type: Cargo ship. MMSI: 240581000.

Date/timePositionNaut miles runAvg speedWind from/ knotsBaromVisibWave heightAir tempDewpointWater temp
2017-Sep-21 16:01N 40°51' E 024°42'0 0.0
2017-Sep-21 15:31N 40°51' E 024°42'0 0.0
2017-Sep-21 15:00N 40°51' E 024°42'0 0.0
2017-Sep-21 14:31N 40°51' E 024°42'0 0.0
2017-Sep-21 14:01N 40°51' E 024°42'0 0.0
2017-Sep-21 13:31N 40°51' E 024°42'0 0.0
2017-Sep-21 13:01N 40°51' E 024°42'0 0.0
2017-Sep-21 12:30N 40°51' E 024°42'0 0.0
2017-Sep-21 12:00N 40°51' E 024°42'0 0.0
2017-Sep-21 11:30N 40°51' E 024°42'0 0.0
2017-Sep-21 11:00N 40°51' E 024°42'0 0.0
2017-Sep-21 10:31N 40°51' E 024°42'0 0.0
2017-Sep-21 10:01N 40°51' E 024°42'0 0.0
2017-Sep-21 09:31N 40°51' E 024°42'0 0.0
2017-Sep-21 09:01N 40°51' E 024°42'0 0.0
2017-Sep-21 08:31N 40°51' E 024°42'0 0.6
2017-Sep-21 08:01N 40°52' E 024°42'4 8.5
2017-Sep-21 07:30N 40°50' E 024°37'4 8.9
2017-Sep-21 07:00N 40°46' E 024°33'4 8.6
2017-Sep-21 06:30N 40°43' E 024°30'4 8.5
2017-Sep-21 06:00N 40°39' E 024°27'4 8.5
2017-Sep-21 05:30N 40°35' E 024°24'5 8.5
2017-Sep-21 04:59N 40°32' E 024°20'11 8.3
2017-Sep-21 03:39N 40°23' E 024°12'3 7.0
2017-Sep-21 03:09N 40°20' E 024°15'1 7.7
2017-Sep-21 02:58N 40°19' E 024°17'3 7.5
2017-Sep-21 02:30N 40°17' E 024°20'4 8.0
2017-Sep-21 02:01N 40°13' E 024°23'13 6.6
2017-Sep-21 00:05N 40°02' E 024°15'2 8.3
2017-Sep-20 23:49N 40°01' E 024°13'6 7.6
2017-Sep-20 23:02N 39°55' E 024°12'0 8.0
2017-Sep-20 23:00N 39°55' E 024°12'4 7.8
2017-Sep-20 22:30N 39°51' E 024°13'5 7.9
2017-Sep-20 21:55N 39°46' E 024°13'3 7.9
2017-Sep-20 21:30N 39°43' E 024°13'4 8.2
2017-Sep-20 21:00N 39°39' E 024°13'5 8.6
2017-Sep-20 20:29N 39°34' E 024°14'4 8.8
2017-Sep-20 19:59N 39°30' E 024°14'246 4.9
2017-Sep-18 17:26N 35°25' E 024°36'4 8.5
2017-Sep-18 17:00N 35°23' E 024°31'3 5.2
2017-Sep-18 16:30N 35°22' E 024°29'0 0.0
2017-Sep-18 16:01N 35°22' E 024°29'0 0.0
2017-Sep-18 15:31N 35°22' E 024°29'0 0.0
2017-Sep-18 15:01N 35°22' E 024°29'0 0.0
2017-Sep-18 14:30N 35°22' E 024°29'0 0.0
2017-Sep-18 14:01N 35°22' E 024°29'0 0.0
2017-Sep-18 13:31N 35°22' E 024°29'0 0.0
2017-Sep-18 13:00N 35°22' E 024°29'0 0.0
2017-Sep-18 12:31N 35°22' E 024°29'0 0.0
2017-Sep-18 12:00N 35°22' E 024°29'0 0.0
2017-Sep-18 11:30N 35°22' E 024°29'0 0.0
2017-Sep-18 11:01N 35°22' E 024°29'0 0.0
2017-Sep-18 10:30N 35°22' E 024°29'0 0.0
2017-Sep-18 10:00N 35°22' E 024°29'0 0.0
2017-Sep-18 09:31N 35°22' E 024°29'0 0.0
2017-Sep-18 09:01N 35°22' E 024°29'0 0.0
2017-Sep-18 08:30N 35°22' E 024°29'0 0.0
2017-Sep-18 08:01N 35°22' E 024°29'0 0.0
2017-Sep-18 07:30N 35°22' E 024°29'0 0.0
2017-Sep-18 07:01N 35°22' E 024°29'0 0.0
2017-Sep-18 06:31N 35°22' E 024°29'0 0.0
2017-Sep-18 06:01N 35°22' E 024°29'0 0.1
2017-Sep-18 05:31N 35°22' E 024°29'2 3.9
2017-Sep-18 05:01N 35°24' E 024°30'4 7.7
2017-Sep-18 04:30N 35°28' E 024°31'223 7.6
2017-Sep-16 23:19N 39°11' E 024°38'3 8.2
2017-Sep-16 23:00N 39°14' E 024°38'4 8.3
2017-Sep-16 22:31N 39°18' E 024°38'4 8.4
2017-Sep-16 22:00N 39°22' E 024°38'4 8.3
2017-Sep-16 21:31N 39°26' E 024°37'4 8.1
2017-Sep-16 21:00N 39°30' E 024°37'4 8.1
2017-Sep-16 20:31N 39°34' E 024°37'4 8.2
2017-Sep-16 20:00N 39°38' E 024°36'4 8.1
2017-Sep-16 19:30N 39°42' E 024°36'5 7.6
2017-Sep-16 18:54N 39°47' E 024°35'3 7.5
2017-Sep-16 18:29N 39°50' E 024°35'4 7.4
2017-Sep-16 18:01N 39°53' E 024°34'4 7.4
2017-Sep-16 17:30N 39°57' E 024°33'4 7.4
2017-Sep-16 17:01N 40°01' E 024°33'4 7.3
2017-Sep-16 16:30N 40°04' E 024°32'4 7.3
2017-Sep-16 16:00N 40°08' E 024°31'4 7.2
2017-Sep-16 15:30N 40°11' E 024°31'3 6.7
2017-Sep-16 15:01N 40°15' E 024°31'3 6.4
2017-Sep-16 14:31N 40°18' E 024°30'3 6.3
2017-Sep-16 13:58N 40°21' E 024°30'3 6.2
2017-Sep-16 13:30N 40°24' E 024°29'3 6.5
2017-Sep-16 12:58N 40°28' E 024°29'3 7.0
2017-Sep-16 12:30N 40°31' E 024°29'4 7.3
2017-Sep-16 12:00N 40°35' E 024°28'3 6.9
2017-Sep-16 11:29N 40°38' E 024°28'3 7.1
2017-Sep-16 11:01N 40°41' E 024°29'4 7.5
2017-Sep-16 10:31N 40°45' E 024°32'4 7.4
2017-Sep-16 10:01N 40°48' E 024°35'4 7.3
2017-Sep-16 09:30N 40°50' E 024°38'3 6.2
2017-Sep-16 09:00N 40°51' E 024°42'0 0.2
2017-Sep-16 08:31N 40°51' E 024°42'0 0.0
2017-Sep-16 08:00N 40°51' E 024°42'0 0.0
2017-Sep-16 07:30N 40°51' E 024°42'0 0.0
2017-Sep-16 07:00N 40°51' E 024°42'0 0.0
2017-Sep-16 06:30N 40°51' E 024°42'0 0.0
2017-Sep-16 06:01N 40°51' E 024°42'0 0.0
2017-Sep-16 05:31N 40°51' E 024°42'0 0.0
2017-Sep-16 05:00N 40°51' E 024°42'0 0.0
2017-Sep-16 04:31N 40°51' E 024°42'0 0.0
2017-Sep-16 04:01N 40°51' E 024°42'0 0.0
2017-Sep-16 03:30N 40°51' E 024°42'0 0.0
2017-Sep-16 03:01N 40°51' E 024°42'0 0.0
2017-Sep-16 02:31N 40°51' E 024°42'0 0.0
2017-Sep-16 02:00N 40°51' E 024°42'0 0.0
2017-Sep-16 01:31N 40°51' E 024°42'0 0.0
2017-Sep-16 01:01N 40°51' E 024°42'0 0.0
2017-Sep-16 00:30N 40°51' E 024°42'0 0.0
2017-Sep-16 00:01N 40°51' E 024°42'0 0.0
2017-Sep-15 23:30N 40°51' E 024°42'0 0.0
2017-Sep-15 23:00N 40°51' E 024°42'0 0.0
2017-Sep-15 22:30N 40°51' E 024°42'0 0.0
2017-Sep-15 22:00N 40°51' E 024°42'0 0.0
2017-Sep-15 21:30N 40°51' E 024°42'0 0.0
2017-Sep-15 21:00N 40°51' E 024°42'0 0.0
2017-Sep-15 20:30N 40°51' E 024°42'0 0.0
2017-Sep-15 20:00N 40°51' E 024°42'0 0.0
2017-Sep-15 19:30N 40°51' E 024°42'0 0.0
2017-Sep-15 19:00N 40°51' E 024°42'0 0.0
2017-Sep-15 18:31N 40°51' E 024°42'0 0.0
2017-Sep-15 18:00N 40°51' E 024°42'0 0.0
2017-Sep-15 17:31N 40°51' E 024°42'0 0.0
2017-Sep-15 17:00N 40°51' E 024°42'0 0.0
2017-Sep-15 16:31N 40°51' E 024°42'0 0.0
2017-Sep-15 16:00N 40°51' E 024°42'0 0.0
2017-Sep-15 15:31N 40°51' E 024°42'0 0.0
2017-Sep-15 15:01N 40°51' E 024°42'0 0.0
2017-Sep-15 14:30N 40°51' E 024°42'0 0.0
2017-Sep-15 14:00N 40°51' E 024°42'0 0.0
2017-Sep-15 13:30N 40°51' E 024°42'0 0.0
2017-Sep-15 13:01N 40°51' E 024°42'0 0.0
2017-Sep-15 12:30N 40°51' E 024°42'0 0.0
2017-Sep-15 12:00N 40°51' E 024°42'0 0.0
2017-Sep-15 11:31N 40°51' E 024°42'0 0.0
2017-Sep-15 11:00N 40°51' E 024°42'0 0.0
2017-Sep-15 10:31N 40°51' E 024°42'0 0.0
2017-Sep-15 10:00N 40°51' E 024°42'0 0.0
2017-Sep-15 09:31N 40°51' E 024°42'0 0.0
2017-Sep-15 09:00N 40°51' E 024°42'0 0.0
2017-Sep-15 08:31N 40°51' E 024°42'0 0.0
2017-Sep-15 08:00N 40°51' E 024°42'0 0.0
2017-Sep-15 07:31N 40°51' E 024°42'0 0.0
2017-Sep-15 07:00N 40°51' E 024°42'0 0.0
2017-Sep-15 06:31N 40°51' E 024°42'0 0.0
2017-Sep-15 06:00N 40°51' E 024°42'0 0.0
2017-Sep-15 05:30N 40°51' E 024°42'0 0.0
2017-Sep-15 05:01N 40°51' E 024°42'0 0.0
2017-Sep-15 04:31N 40°51' E 024°42'0 0.0
2017-Sep-15 04:00N 40°51' E 024°42'0 0.0
2017-Sep-15 03:31N 40°51' E 024°42'0 0.0
2017-Sep-15 03:01N 40°51' E 024°42'0 0.0
2017-Sep-15 02:30N 40°51' E 024°42'0 0.0
2017-Sep-15 02:01N 40°51' E 024°42'0 0.0
2017-Sep-15 01:30N 40°51' E 024°42'0 0.0
2017-Sep-15 01:00N 40°51' E 024°42'0 0.0
2017-Sep-15 00:31N 40°51' E 024°42'0 0.0
2017-Sep-15 00:00N 40°51' E 024°42'0 0.0
2017-Sep-14 23:30N 40°51' E 024°42'0 0.0
2017-Sep-14 23:00N 40°51' E 024°42'0 0.0
2017-Sep-14 22:30N 40°51' E 024°42'0 0.0
2017-Sep-14 22:00N 40°51' E 024°42'0 0.0
2017-Sep-14 21:31N 40°51' E 024°42'2 4.9
2017-Sep-14 21:01N 40°51' E 024°39'5 9.0
2017-Sep-14 20:30N 40°48' E 024°34'4 8.9
2017-Sep-14 20:01N 40°45' E 024°31'4 8.9
2017-Sep-14 19:30N 40°40' E 024°29'4 8.9
2017-Sep-14 19:01N 40°36' E 024°29'4 8.5
2017-Sep-14 18:31N 40°32' E 024°30'4 8.3
2017-Sep-14 18:00N 40°28' E 024°31'6 9.0
2017-Sep-14 17:18N 40°21' E 024°33'  
2017-Sep-11 17:45N 35°24' E 024°32'2 8.7
2017-Sep-11 17:31N 35°23' E 024°30'1 2.6
2017-Sep-11 17:00N 35°22' E 024°29'0 0.0
2017-Sep-11 16:31N 35°22' E 024°29'0 0.0
2017-Sep-11 16:01N 35°22' E 024°29'  
Track history (hours):
 
Tides and Currents Weather Stations Pressure Air Temp Water Temp Dewpoint Dewpoint Depression Visibility Wind Speed Wind Dir Waves Ship Positions

Michalis K

Last reported at 2017-Sep-21 16:01 UTC. Time now 2017-Sep-21 16:16 UTC.
Position N 40°51' E 024°42'.

Length 63 m; draft 3.2 m.

Type: Cargo ship. MMSI: 240581000.

Date/timePositionNaut miles runAvg speedWind from/ knotsBaromVisibWave heightAir tempDewpointWater temp
2017-Sep-21 16:01N 40°51' E 024°42'0 0.0
2017-Sep-21 15:31N 40°51' E 024°42'0 0.0
2017-Sep-21 15:00N 40°51' E 024°42'0 0.0
2017-Sep-21 14:31N 40°51' E 024°42'0 0.0
2017-Sep-21 14:01N 40°51' E 024°42'0 0.0
2017-Sep-21 13:31N 40°51' E 024°42'0 0.0
2017-Sep-21 13:01N 40°51' E 024°42'0 0.0
2017-Sep-21 12:30N 40°51' E 024°42'0 0.0
2017-Sep-21 12:00N 40°51' E 024°42'0 0.0
2017-Sep-21 11:30N 40°51' E 024°42'0 0.0
2017-Sep-21 11:00N 40°51' E 024°42'0 0.0
2017-Sep-21 10:31N 40°51' E 024°42'0 0.0
2017-Sep-21 10:01N 40°51' E 024°42'0 0.0
2017-Sep-21 09:31N 40°51' E 024°42'0 0.0
2017-Sep-21 09:01N 40°51' E 024°42'0 0.0
2017-Sep-21 08:31N 40°51' E 024°42'0 0.6
2017-Sep-21 08:01N 40°52' E 024°42'4 8.5
2017-Sep-21 07:30N 40°50' E 024°37'4 8.9
2017-Sep-21 07:00N 40°46' E 024°33'4 8.6
2017-Sep-21 06:30N 40°43' E 024°30'4 8.5
2017-Sep-21 06:00N 40°39' E 024°27'4 8.5
2017-Sep-21 05:30N 40°35' E 024°24'5 8.5
2017-Sep-21 04:59N 40°32' E 024°20'11 8.3
2017-Sep-21 03:39N 40°23' E 024°12'3 7.0
2017-Sep-21 03:09N 40°20' E 024°15'1 7.7
2017-Sep-21 02:58N 40°19' E 024°17'3 7.5
2017-Sep-21 02:30N 40°17' E 024°20'4 8.0
2017-Sep-21 02:01N 40°13' E 024°23'13 6.6
2017-Sep-21 00:05N 40°02' E 024°15'2 8.3
2017-Sep-20 23:49N 40°01' E 024°13'6 7.6
2017-Sep-20 23:02N 39°55' E 024°12'0 8.0
2017-Sep-20 23:00N 39°55' E 024°12'4 7.8
2017-Sep-20 22:30N 39°51' E 024°13'5 7.9
2017-Sep-20 21:55N 39°46' E 024°13'3 7.9
2017-Sep-20 21:30N 39°43' E 024°13'4 8.2
2017-Sep-20 21:00N 39°39' E 024°13'5 8.6
2017-Sep-20 20:29N 39°34' E 024°14'4 8.8
2017-Sep-20 19:59N 39°30' E 024°14'246 4.9
2017-Sep-18 17:26N 35°25' E 024°36'4 8.5
2017-Sep-18 17:00N 35°23' E 024°31'3 5.2
2017-Sep-18 16:30N 35°22' E 024°29'0 0.0
2017-Sep-18 16:01N 35°22' E 024°29'0 0.0
2017-Sep-18 15:31N 35°22' E 024°29'0 0.0
2017-Sep-18 15:01N 35°22' E 024°29'0 0.0
2017-Sep-18 14:30N 35°22' E 024°29'0 0.0
2017-Sep-18 14:01N 35°22' E 024°29'0 0.0
2017-Sep-18 13:31N 35°22' E 024°29'0 0.0
2017-Sep-18 13:00N 35°22' E 024°29'0 0.0
2017-Sep-18 12:31N 35°22' E 024°29'0 0.0
2017-Sep-18 12:00N 35°22' E 024°29'0 0.0
2017-Sep-18 11:30N 35°22' E 024°29'0 0.0
2017-Sep-18 11:01N 35°22' E 024°29'0 0.0
2017-Sep-18 10:30N 35°22' E 024°29'0 0.0
2017-Sep-18 10:00N 35°22' E 024°29'0 0.0
2017-Sep-18 09:31N 35°22' E 024°29'0 0.0
2017-Sep-18 09:01N 35°22' E 024°29'0 0.0
2017-Sep-18 08:30N 35°22' E 024°29'0 0.0
2017-Sep-18 08:01N 35°22' E 024°29'0 0.0
2017-Sep-18 07:30N 35°22' E 024°29'0 0.0
2017-Sep-18 07:01N 35°22' E 024°29'0 0.0
2017-Sep-18 06:31N 35°22' E 024°29'0 0.0
2017-Sep-18 06:01N 35°22' E 024°29'0 0.1
2017-Sep-18 05:31N 35°22' E 024°29'2 3.9
2017-Sep-18 05:01N 35°24' E 024°30'4 7.7
2017-Sep-18 04:30N 35°28' E 024°31'223 7.6
2017-Sep-16 23:19N 39°11' E 024°38'3 8.2
2017-Sep-16 23:00N 39°14' E 024°38'4 8.3
2017-Sep-16 22:31N 39°18' E 024°38'4 8.4
2017-Sep-16 22:00N 39°22' E 024°38'4 8.3
2017-Sep-16 21:31N 39°26' E 024°37'4 8.1
2017-Sep-16 21:00N 39°30' E 024°37'4 8.1
2017-Sep-16 20:31N 39°34' E 024°37'4 8.2
2017-Sep-16 20:00N 39°38' E 024°36'4 8.1
2017-Sep-16 19:30N 39°42' E 024°36'5 7.6
2017-Sep-16 18:54N 39°47' E 024°35'3 7.5
2017-Sep-16 18:29N 39°50' E 024°35'4 7.4
2017-Sep-16 18:01N 39°53' E 024°34'4 7.4
2017-Sep-16 17:30N 39°57' E 024°33'4 7.4
2017-Sep-16 17:01N 40°01' E 024°33'4 7.3
2017-Sep-16 16:30N 40°04' E 024°32'4 7.3
2017-Sep-16 16:00N 40°08' E 024°31'4 7.2
2017-Sep-16 15:30N 40°11' E 024°31'3 6.7
2017-Sep-16 15:01N 40°15' E 024°31'3 6.4
2017-Sep-16 14:31N 40°18' E 024°30'3 6.3
2017-Sep-16 13:58N 40°21' E 024°30'3 6.2
2017-Sep-16 13:30N 40°24' E 024°29'3 6.5
2017-Sep-16 12:58N 40°28' E 024°29'3 7.0
2017-Sep-16 12:30N 40°31' E 024°29'4 7.3
2017-Sep-16 12:00N 40°35' E 024°28'3 6.9
2017-Sep-16 11:29N 40°38' E 024°28'3 7.1
2017-Sep-16 11:01N 40°41' E 024°29'4 7.5
2017-Sep-16 10:31N 40°45' E 024°32'4 7.4
2017-Sep-16 10:01N 40°48' E 024°35'4 7.3
2017-Sep-16 09:30N 40°50' E 024°38'3 6.2
2017-Sep-16 09:00N 40°51' E 024°42'0 0.2
2017-Sep-16 08:31N 40°51' E 024°42'0 0.0
2017-Sep-16 08:00N 40°51' E 024°42'0 0.0
2017-Sep-16 07:30N 40°51' E 024°42'0 0.0
2017-Sep-16 07:00N 40°51' E 024°42'0 0.0
2017-Sep-16 06:30N 40°51' E 024°42'0 0.0
2017-Sep-16 06:01N 40°51' E 024°42'0 0.0
2017-Sep-16 05:31N 40°51' E 024°42'0 0.0
2017-Sep-16 05:00N 40°51' E 024°42'0 0.0
2017-Sep-16 04:31N 40°51' E 024°42'0 0.0
2017-Sep-16 04:01N 40°51' E 024°42'0 0.0
2017-Sep-16 03:30N 40°51' E 024°42'0 0.0
2017-Sep-16 03:01N 40°51' E 024°42'0 0.0
2017-Sep-16 02:31N 40°51' E 024°42'0 0.0
2017-Sep-16 02:00N 40°51' E 024°42'0 0.0
2017-Sep-16 01:31N 40°51' E 024°42'0 0.0
2017-Sep-16 01:01N 40°51' E 024°42'0 0.0
2017-Sep-16 00:30N 40°51' E 024°42'0 0.0
2017-Sep-16 00:01N 40°51' E 024°42'0 0.0
2017-Sep-15 23:30N 40°51' E 024°42'0 0.0
2017-Sep-15 23:00N 40°51' E 024°42'0 0.0
2017-Sep-15 22:30N 40°51' E 024°42'0 0.0
2017-Sep-15 22:00N 40°51' E 024°42'0 0.0
2017-Sep-15 21:30N 40°51' E 024°42'0 0.0
2017-Sep-15 21:00N 40°51' E 024°42'0 0.0
2017-Sep-15 20:30N 40°51' E 024°42'0 0.0
2017-Sep-15 20:00N 40°51' E 024°42'0 0.0
2017-Sep-15 19:30N 40°51' E 024°42'0 0.0
2017-Sep-15 19:00N 40°51' E 024°42'0 0.0
2017-Sep-15 18:31N 40°51' E 024°42'0 0.0
2017-Sep-15 18:00N 40°51' E 024°42'0 0.0
2017-Sep-15 17:31N 40°51' E 024°42'0 0.0
2017-Sep-15 17:00N 40°51' E 024°42'0 0.0
2017-Sep-15 16:31N 40°51' E 024°42'0 0.0
2017-Sep-15 16:00N 40°51' E 024°42'0 0.0
2017-Sep-15 15:31N 40°51' E 024°42'0 0.0
2017-Sep-15 15:01N 40°51' E 024°42'0 0.0
2017-Sep-15 14:30N 40°51' E 024°42'0 0.0
2017-Sep-15 14:00N 40°51' E 024°42'0 0.0
2017-Sep-15 13:30N 40°51' E 024°42'0 0.0
2017-Sep-15 13:01N 40°51' E 024°42'0 0.0
2017-Sep-15 12:30N 40°51' E 024°42'0 0.0
2017-Sep-15 12:00N 40°51' E 024°42'0 0.0
2017-Sep-15 11:31N 40°51' E 024°42'0 0.0
2017-Sep-15 11:00N 40°51' E 024°42'0 0.0
2017-Sep-15 10:31N 40°51' E 024°42'0 0.0
2017-Sep-15 10:00N 40°51' E 024°42'0 0.0
2017-Sep-15 09:31N 40°51' E 024°42'0 0.0
2017-Sep-15 09:00N 40°51' E 024°42'0 0.0
2017-Sep-15 08:31N 40°51' E 024°42'0 0.0
2017-Sep-15 08:00N 40°51' E 024°42'0 0.0
2017-Sep-15 07:31N 40°51' E 024°42'0 0.0
2017-Sep-15 07:00N 40°51' E 024°42'0 0.0
2017-Sep-15 06:31N 40°51' E 024°42'0 0.0
2017-Sep-15 06:00N 40°51' E 024°42'0 0.0
2017-Sep-15 05:30N 40°51' E 024°42'0 0.0
2017-Sep-15 05:01N 40°51' E 024°42'0 0.0
2017-Sep-15 04:31N 40°51' E 024°42'0 0.0
2017-Sep-15 04:00N 40°51' E 024°42'0 0.0
2017-Sep-15 03:31N 40°51' E 024°42'0 0.0
2017-Sep-15 03:01N 40°51' E 024°42'0 0.0
2017-Sep-15 02:30N 40°51' E 024°42'0 0.0
2017-Sep-15 02:01N 40°51' E 024°42'0 0.0
2017-Sep-15 01:30N 40°51' E 024°42'0 0.0
2017-Sep-15 01:00N 40°51' E 024°42'0 0.0
2017-Sep-15 00:31N 40°51' E 024°42'0 0.0
2017-Sep-15 00:00N 40°51' E 024°42'0 0.0
2017-Sep-14 23:30N 40°51' E 024°42'0 0.0
2017-Sep-14 23:00N 40°51' E 024°42'0 0.0
2017-Sep-14 22:30N 40°51' E 024°42'0 0.0
2017-Sep-14 22:00N 40°51' E 024°42'0 0.0
2017-Sep-14 21:31N 40°51' E 024°42'2 4.9
2017-Sep-14 21:01N 40°51' E 024°39'5 9.0
2017-Sep-14 20:30N 40°48' E 024°34'4 8.9
2017-Sep-14 20:01N 40°45' E 024°31'4 8.9
2017-Sep-14 19:30N 40°40' E 024°29'4 8.9
2017-Sep-14 19:01N 40°36' E 024°29'4 8.5
2017-Sep-14 18:31N 40°32' E 024°30'4 8.3
2017-Sep-14 18:00N 40°28' E 024°31'6 9.0
2017-Sep-14 17:18N 40°21' E 024°33'  
2017-Sep-11 17:45N 35°24' E 024°32'2 8.7
2017-Sep-11 17:31N 35°23' E 024°30'1 2.6
2017-Sep-11 17:00N 35°22' E 024°29'0 0.0
2017-Sep-11 16:31N 35°22' E 024°29'0 0.0
2017-Sep-11 16:01N 35°22' E 024°29'  

Dump ship's entire track history